createdAt,value
2019-05-18T00:01:41.537Z,16.40
2019-05-18T00:04:11.420Z,16.40
2019-05-18T00:06:41.381Z,16.40
2019-05-18T00:09:11.444Z,16.40
2019-05-18T00:11:41.396Z,16.40
2019-05-18T00:14:12.382Z,16.40
2019-05-18T00:16:42.235Z,16.40
2019-05-18T00:19:12.220Z,16.40
2019-05-18T00:21:42.192Z,16.30
2019-05-18T00:24:12.215Z,16.30
2019-05-18T00:26:42.293Z,16.30
2019-05-18T00:29:12.718Z,16.30
2019-05-18T00:31:43.092Z,16.30
2019-05-18T00:34:13.048Z,16.30
2019-05-18T00:36:42.772Z,16.30
2019-05-18T00:39:12.565Z,16.30
2019-05-18T00:41:45.375Z,16.30
2019-05-18T00:44:14.235Z,16.20
2019-05-18T00:46:44.615Z,16.20
2019-05-18T00:49:14.568Z,16.10
2019-05-18T00:51:44.532Z,16.10
2019-05-18T00:54:14.472Z,16.20
2019-05-18T00:56:44.332Z,16.10
2019-05-18T00:59:16.165Z,16.10
2019-05-18T01:01:46.342Z,16.10
2019-05-18T01:04:16.125Z,16.10
2019-05-18T01:06:45.958Z,16.10
2019-05-18T01:09:15.585Z,16.10
2019-05-18T01:11:45.268Z,16.10
2019-05-18T01:14:15.184Z,16.00
2019-05-18T01:16:44.859Z,16.10
2019-05-18T01:19:14.484Z,16.00
2019-05-18T01:21:44.403Z,14.90
2019-05-18T01:24:14.196Z,14.50
2019-05-18T01:26:44.140Z,14.90
2019-05-18T01:29:14.023Z,15.20
2019-05-18T01:31:44.077Z,15.50
2019-05-18T01:34:14.365Z,15.70
2019-05-18T01:36:44.498Z,15.50
2019-05-18T01:39:14.404Z,15.30
2019-05-18T01:41:44.443Z,14.70
2019-05-18T01:44:14.416Z,15.10
2019-05-18T01:46:44.084Z,15.50
2019-05-18T01:49:14.049Z,15.70
2019-05-18T01:51:43.724Z,15.80
2019-05-18T01:54:13.389Z,15.90
2019-05-18T01:56:43.211Z,16.00
2019-05-18T01:59:12.855Z,16.00
2019-05-18T02:01:42.533Z,16.10
2019-05-18T02:04:12.164Z,16.00
2019-05-18T02:06:41.847Z,16.10
2019-05-18T02:09:11.580Z,16.10
2019-05-18T02:11:41.260Z,16.20
2019-05-18T02:14:10.965Z,16.20
2019-05-18T02:16:40.776Z,16.20
2019-05-18T02:19:10.565Z,16.20
2019-05-18T02:21:40.412Z,16.20
2019-05-18T02:24:10.109Z,16.20
2019-05-18T02:26:39.766Z,16.20
2019-05-18T02:29:09.755Z,16.20
2019-05-18T02:31:39.420Z,16.10
2019-05-18T02:34:09.189Z,16.10
2019-05-18T02:36:38.877Z,16.10
2019-05-18T02:39:09.357Z,16.10
2019-05-18T02:41:39.028Z,16.10
2019-05-18T02:44:08.722Z,16.10
2019-05-18T02:46:38.402Z,16.00
2019-05-18T02:49:08.410Z,16.10
2019-05-18T02:51:38.084Z,16.10
2019-05-18T02:54:08.161Z,16.20
2019-05-18T02:56:37.930Z,16.10
2019-05-18T02:59:07.563Z,16.20
2019-05-18T03:01:37.228Z,16.10
2019-05-18T03:04:07.410Z,15.80
2019-05-18T03:06:37.132Z,15.80
2019-05-18T03:09:07.623Z,15.40
2019-05-18T03:11:37.356Z,15.70
2019-05-18T03:14:07.451Z,15.90
2019-05-18T03:16:37.573Z,16.00
2019-05-18T03:19:09.122Z,16.10
2019-05-18T03:21:39.338Z,16.10
2019-05-18T03:24:09.020Z,16.10
2019-05-18T03:26:39.064Z,16.10
2019-05-18T03:29:08.731Z,16.00
2019-05-18T03:31:38.384Z,16.00
2019-05-18T03:34:08.149Z,16.00
2019-05-18T03:36:37.992Z,15.90
2019-05-18T03:39:08.060Z,15.90
2019-05-18T03:41:37.704Z,15.90
2019-05-18T03:44:07.379Z,15.90
2019-05-18T03:46:37.078Z,15.90
2019-05-18T03:49:23.663Z,15.80
2019-05-18T03:51:38.311Z,15.80
2019-05-18T03:54:08.029Z,15.80
2019-05-18T03:56:37.829Z,15.80
2019-05-18T03:59:07.525Z,15.80
2019-05-18T04:01:37.350Z,15.80
2019-05-18T04:04:07.060Z,15.90
2019-05-18T04:06:36.857Z,15.90
2019-05-18T04:09:07.428Z,15.90
2019-05-18T04:11:37.052Z,15.80
2019-05-18T04:14:08.470Z,15.80
2019-05-18T04:16:38.424Z,15.80
2019-05-18T04:19:08.084Z,15.80
2019-05-18T04:21:37.735Z,15.80
2019-05-18T04:24:07.710Z,15.80
2019-05-18T04:26:37.362Z,15.90
2019-05-18T04:29:07.362Z,15.90
2019-05-18T04:31:36.944Z,15.90
2019-05-18T04:34:06.888Z,15.90
2019-05-18T04:36:36.605Z,15.90
2019-05-18T04:39:07.171Z,16.00
2019-05-18T04:41:39.074Z,16.10
2019-05-18T04:44:09.414Z,16.10
2019-05-18T04:46:39.298Z,16.50
2019-05-18T04:49:09.282Z,17.10
2019-05-18T04:51:39.113Z,17.60
2019-05-18T04:54:09.127Z,17.80
2019-05-18T04:56:42.711Z,17.60
2019-05-18T04:59:10.673Z,17.30
2019-05-18T05:01:40.756Z,17.10
2019-05-18T05:04:10.775Z,16.90
2019-05-18T05:06:40.756Z,16.70
2019-05-18T05:09:10.684Z,16.50
2019-05-18T05:11:40.463Z,16.40
2019-05-18T05:14:10.371Z,16.40
2019-05-18T05:16:40.489Z,16.40
2019-05-18T05:19:10.673Z,16.30
2019-05-18T05:21:40.643Z,16.40
2019-05-18T05:24:10.908Z,16.40
2019-05-18T05:26:41.005Z,16.40
2019-05-18T05:29:11.032Z,16.40
2019-05-18T05:31:41.124Z,16.00
2019-05-18T05:34:11.200Z,16.10
2019-05-18T05:36:41.161Z,16.20
2019-05-18T05:39:11.789Z,16.30
2019-05-18T05:41:41.428Z,16.40
2019-05-18T05:44:11.447Z,16.00
2019-05-18T05:46:41.093Z,15.60
2019-05-18T05:49:11.180Z,14.70
2019-05-18T05:51:40.802Z,14.30
2019-05-18T05:54:10.910Z,15.10
2019-05-18T05:56:40.534Z,15.20
2019-05-18T05:59:11.043Z,15.70
2019-05-18T06:01:41.661Z,16.00
2019-05-18T06:04:13.939Z,16.20
2019-05-18T06:06:43.706Z,16.40
2019-05-18T06:09:13.932Z,16.40
2019-05-18T06:11:43.987Z,16.50
2019-05-18T06:14:13.824Z,16.50
2019-05-18T06:16:43.866Z,16.40
2019-05-18T06:19:13.676Z,16.40
2019-05-18T06:21:43.380Z,16.10
2019-05-18T06:24:13.407Z,16.40
2019-05-18T06:26:43.047Z,16.50
2019-05-18T06:29:12.967Z,16.60
2019-05-18T06:31:42.608Z,16.70
2019-05-18T06:34:12.862Z,16.80
2019-05-18T06:36:42.545Z,16.80
2019-05-18T06:39:12.837Z,16.80
2019-05-18T06:41:42.716Z,16.90
2019-05-18T06:44:12.817Z,17.00
2019-05-18T06:46:42.851Z,16.80
2019-05-18T06:49:12.697Z,16.90
2019-05-18T06:51:42.467Z,16.70
2019-05-18T06:54:12.419Z,15.90
2019-05-18T06:56:42.924Z,16.20
2019-05-18T06:59:16.339Z,16.60
2019-05-18T07:01:45.715Z,16.60
2019-05-18T07:04:15.456Z,16.70
2019-05-18T07:06:45.335Z,16.60
2019-05-18T07:09:15.437Z,16.50
2019-05-18T07:11:45.835Z,15.50
2019-05-18T07:14:25.257Z,14.60
2019-05-18T07:16:47.248Z,14.60
2019-05-18T07:19:17.617Z,14.90
2019-05-18T07:21:48.705Z,14.60
2019-05-18T07:24:18.964Z,14.80
2019-05-18T07:26:49.985Z,14.40
2019-05-18T07:29:20.232Z,14.90
2019-05-18T07:31:50.822Z,14.70
2019-05-18T07:34:25.986Z,14.60
2019-05-18T07:36:55.253Z,14.50
2019-05-18T07:39:25.324Z,14.80
2019-05-18T07:41:55.491Z,14.60
2019-05-18T07:44:26.263Z,15.50
2019-05-18T07:46:56.453Z,16.50
2019-05-18T07:49:27.233Z,16.70
2019-05-18T07:51:57.351Z,16.60
2019-05-18T07:54:27.571Z,16.40
2019-05-18T07:56:57.192Z,16.90
2019-05-18T08:01:56.248Z,17.80
2019-05-18T08:04:26.104Z,17.90
2019-05-18T08:06:55.747Z,18.10
2019-05-18T08:09:26.970Z,18.10
2019-05-18T08:11:56.946Z,18.10
2019-05-18T08:14:26.772Z,18.40
2019-05-18T08:16:56.543Z,18.10
2019-05-18T08:19:27.609Z,18.00
2019-05-18T08:24:26.551Z,18.80
2019-05-18T08:26:56.924Z,18.90
2019-05-18T08:29:28.296Z,18.40
2019-05-18T08:36:55.892Z,21.20
2019-05-18T08:39:25.455Z,22.20
2019-05-18T08:41:57.901Z,21.90
2019-05-18T08:44:27.570Z,21.90
2019-05-18T08:46:57.447Z,21.60
2019-05-18T08:49:27.132Z,21.20
2019-05-18T08:52:07.838Z,20.90
2019-05-18T08:54:27.984Z,20.60
2019-05-18T08:56:57.611Z,20.80
2019-05-18T08:59:29.226Z,19.80
2019-05-18T09:01:59.610Z,20.30
2019-05-18T09:04:30.459Z,20.30
2019-05-18T09:06:59.990Z,20.40
2019-05-18T09:09:30.095Z,20.50
2019-05-18T09:11:59.689Z,20.20
2019-05-18T09:14:29.324Z,19.80
2019-05-18T09:16:58.920Z,19.40
2019-05-18T09:19:28.505Z,19.50
2019-05-18T09:21:58.443Z,19.70
2019-05-18T09:24:28.362Z,19.70
2019-05-18T09:26:58.945Z,19.90
2019-05-18T09:29:28.586Z,20.10
2019-05-18T09:31:58.161Z,20.80
2019-05-18T09:34:28.592Z,21.40
2019-05-18T09:36:59.091Z,21.70
2019-05-18T09:39:28.747Z,21.70
2019-05-18T09:41:58.439Z,22.00
2019-05-18T09:44:28.047Z,21.90
2019-05-18T09:46:57.716Z,22.50
2019-05-18T09:49:27.786Z,22.80
2019-05-18T09:51:57.725Z,22.40
2019-05-18T09:54:27.360Z,23.00
2019-05-18T09:56:57.016Z,23.30
2019-05-18T09:59:26.673Z,23.00
2019-05-18T10:01:56.347Z,23.10
2019-05-18T10:04:25.983Z,22.60
2019-05-18T10:06:56.061Z,22.50
2019-05-18T10:09:26.158Z,22.90
2019-05-18T10:11:55.866Z,21.50
2019-05-18T10:14:26.156Z,22.30
2019-05-18T10:16:55.824Z,22.70
2019-05-18T10:19:25.551Z,22.50
2019-05-18T10:21:55.355Z,22.30
2019-05-18T10:24:25.004Z,22.70
2019-05-18T10:26:54.987Z,22.70
2019-05-18T10:29:24.780Z,22.80
2019-05-18T10:31:54.505Z,22.00
2019-05-18T10:34:24.322Z,22.00
2019-05-18T10:36:54.228Z,21.90
2019-05-18T10:39:23.873Z,22.20
2019-05-18T10:41:53.567Z,22.90
2019-05-18T10:44:23.214Z,22.70
2019-05-18T10:46:53.383Z,22.60
2019-05-18T10:49:23.257Z,22.60
2019-05-18T10:51:52.940Z,22.30
2019-05-18T10:54:23.119Z,23.20
2019-05-18T10:56:52.836Z,23.00
2019-05-18T10:59:22.411Z,22.90
2019-05-18T11:01:52.119Z,22.60
2019-05-18T11:04:21.768Z,22.70
2019-05-18T11:06:51.491Z,22.20
2019-05-18T11:09:21.568Z,22.00
2019-05-18T11:11:51.278Z,22.00
2019-05-18T11:14:20.977Z,21.70
2019-05-18T11:16:50.924Z,22.00
2019-05-18T11:19:20.833Z,22.40
2019-05-18T11:21:50.541Z,22.30
2019-05-18T11:24:20.325Z,21.90
2019-05-18T11:26:50.039Z,21.90
2019-05-18T11:29:23.332Z,22.10
2019-05-18T11:31:51.615Z,22.00
2019-05-18T11:34:21.727Z,22.30
2019-05-18T11:36:51.499Z,22.10
2019-05-18T11:39:21.445Z,21.90
2019-05-18T11:41:51.161Z,21.90
2019-05-18T11:44:20.837Z,22.10
2019-05-18T11:46:50.539Z,22.00
2019-05-18T11:49:20.387Z,22.90
2019-05-18T11:51:50.099Z,22.60
2019-05-18T11:54:19.927Z,22.40
2019-05-18T11:56:49.650Z,22.10
2019-05-18T11:59:19.643Z,22.50
2019-05-18T12:01:49.361Z,22.60
2019-05-18T12:04:21.808Z,22.20
2019-05-18T12:06:52.161Z,22.40
2019-05-18T12:09:22.869Z,22.10
2019-05-18T12:11:52.561Z,22.10
2019-05-18T12:14:22.508Z,22.50
2019-05-18T12:16:52.223Z,23.00
2019-05-18T12:19:21.878Z,23.00
2019-05-18T12:21:51.613Z,23.00
2019-05-18T12:24:21.261Z,23.20
2019-05-18T12:26:51.826Z,23.10
2019-05-18T12:29:22.052Z,22.90
2019-05-18T12:31:52.574Z,22.70
2019-05-18T12:34:22.646Z,23.00
2019-05-18T12:36:52.700Z,23.00
2019-05-18T12:39:22.670Z,22.90
2019-05-18T12:41:52.385Z,23.10
2019-05-18T12:44:22.203Z,22.80
2019-05-18T12:46:51.940Z,23.30
2019-05-18T12:49:22.025Z,23.30
2019-05-18T12:51:51.872Z,23.20
2019-05-18T12:54:30.935Z,23.60
2019-05-18T12:56:53.354Z,23.80
2019-05-18T12:59:23.527Z,23.50
2019-05-18T13:01:53.586Z,23.20
2019-05-18T13:04:24.048Z,23.30
2019-05-18T13:06:54.058Z,23.50
2019-05-18T13:09:24.592Z,23.70
2019-05-18T13:11:54.259Z,23.30
2019-05-18T13:14:24.281Z,23.70
2019-05-18T13:16:54.532Z,23.20
2019-05-18T13:19:24.813Z,23.40
2019-05-18T13:21:55.532Z,23.30
2019-05-18T13:24:25.671Z,23.40
2019-05-18T13:26:55.931Z,23.40
2019-05-18T13:29:26.210Z,23.60
2019-05-18T13:31:56.462Z,23.50
2019-05-18T13:34:26.352Z,23.80
2019-05-18T13:36:56.456Z,23.70
2019-05-18T13:39:26.464Z,23.50
2019-05-18T13:41:56.569Z,23.90
2019-05-18T13:44:26.442Z,23.60
2019-05-18T13:46:56.918Z,24.00
2019-05-18T13:49:27.063Z,24.20
2019-05-18T13:51:57.031Z,23.80
2019-05-18T13:54:26.994Z,23.90
2019-05-18T13:56:56.866Z,24.30
2019-05-18T13:59:26.922Z,24.30
2019-05-18T14:01:57.006Z,24.40
2019-05-18T14:04:26.977Z,24.30
2019-05-18T14:06:56.952Z,24.00
2019-05-18T14:09:26.891Z,24.40
2019-05-18T14:11:56.883Z,24.30
2019-05-18T14:14:26.932Z,24.20
2019-05-18T14:16:56.910Z,24.20
2019-05-18T14:19:26.891Z,24.00
2019-05-18T14:21:56.530Z,24.00
2019-05-18T14:24:26.756Z,23.80
2019-05-18T14:26:57.194Z,23.40
2019-05-18T14:29:27.230Z,23.40
2019-05-18T14:31:56.930Z,23.40
2019-05-18T14:34:27.159Z,23.70
2019-05-18T14:36:57.238Z,23.80
2019-05-18T14:39:27.391Z,23.80
2019-05-18T14:41:57.474Z,23.80
2019-05-18T14:44:27.527Z,23.80
2019-05-18T14:46:57.506Z,23.50
2019-05-18T14:49:28.754Z,23.30
2019-05-18T14:51:58.916Z,23.10
2019-05-18T14:54:28.822Z,23.50
2019-05-18T14:56:58.827Z,24.10
2019-05-18T14:59:29.058Z,24.00
2019-05-18T15:01:59.048Z,24.00
2019-05-18T15:04:29.102Z,24.30
2019-05-18T15:06:59.454Z,24.30
2019-05-18T15:09:29.177Z,24.50
2019-05-18T15:11:59.522Z,24.20
2019-05-18T15:14:29.258Z,24.30
2019-05-18T15:16:59.447Z,24.00
2019-05-18T15:19:29.141Z,24.40
2019-05-18T15:21:59.080Z,24.40
2019-05-18T15:24:29.017Z,24.20
2019-05-18T15:26:59.001Z,24.10
2019-05-18T15:29:28.851Z,24.30
2019-05-18T15:31:58.631Z,24.50
2019-05-18T15:34:28.576Z,24.30
2019-05-18T15:36:58.675Z,23.90
2019-05-18T15:39:28.618Z,23.80
2019-05-18T15:41:58.703Z,23.10
2019-05-18T15:44:28.769Z,22.70
2019-05-18T15:46:58.847Z,22.70
2019-05-18T15:49:28.898Z,22.40
2019-05-18T15:51:58.867Z,22.10
2019-05-18T15:54:28.916Z,21.60
2019-05-18T15:56:58.687Z,21.20
2019-05-18T15:59:28.543Z,20.10
2019-05-18T16:01:58.207Z,19.20
2019-05-18T16:04:28.166Z,18.70
2019-05-18T16:06:57.822Z,18.70
2019-05-18T16:09:27.787Z,18.80
2019-05-18T16:11:57.643Z,18.60
2019-05-18T16:14:27.539Z,18.30
2019-05-18T16:16:57.599Z,18.30
2019-05-18T16:19:27.556Z,17.60
2019-05-18T16:21:57.730Z,17.80
2019-05-18T16:24:27.746Z,18.80
2019-05-18T16:26:57.810Z,19.10
2019-05-18T16:29:27.821Z,18.40
2019-05-18T16:31:57.794Z,18.70
2019-05-18T16:34:27.754Z,19.20
2019-05-18T16:37:00.731Z,19.70
2019-05-18T16:39:29.886Z,20.50
2019-05-18T16:41:59.912Z,21.10
2019-05-18T16:44:29.860Z,21.40
2019-05-18T16:47:00.249Z,21.70
2019-05-18T16:49:29.975Z,21.80
2019-05-18T16:51:59.901Z,21.90
2019-05-18T16:54:29.721Z,21.90
2019-05-18T16:56:59.599Z,22.00
2019-05-18T16:59:29.617Z,22.00
2019-05-18T17:01:59.535Z,21.80
2019-05-18T17:04:29.239Z,21.90
2019-05-18T17:06:59.162Z,21.40
2019-05-18T17:09:29.011Z,20.30
2019-05-18T17:11:59.151Z,20.10
2019-05-18T17:14:29.587Z,19.60
2019-05-18T17:16:59.421Z,18.90
2019-05-18T17:19:29.890Z,17.80
2019-05-18T17:24:29.418Z,18.20
2019-05-18T17:26:59.098Z,18.80
2019-05-18T17:29:29.138Z,18.80
2019-05-18T17:31:58.799Z,18.80
2019-05-18T17:34:28.959Z,18.40
2019-05-18T17:36:58.666Z,18.30
2019-05-18T17:39:29.246Z,18.30
2019-05-18T17:41:59.350Z,18.50
2019-05-18T17:44:29.446Z,18.10
2019-05-18T17:46:59.520Z,17.40
2019-05-18T17:49:32.445Z,17.70
2019-05-18T17:52:02.523Z,17.80
2019-05-18T17:54:32.982Z,18.30
2019-05-18T17:57:08.503Z,18.50
2019-05-18T17:59:36.473Z,19.00
2019-05-18T18:02:06.978Z,19.60
2019-05-18T18:04:37.678Z,18.90
2019-05-18T18:07:08.768Z,18.90
2019-05-18T18:09:38.718Z,19.60
2019-05-18T18:12:09.185Z,20.70
2019-05-18T18:14:38.891Z,21.30
2019-05-18T18:17:08.730Z,21.20
2019-05-18T18:19:38.400Z,21.30
2019-05-18T18:22:08.902Z,21.60
2019-05-18T18:24:38.570Z,21.50
2019-05-18T18:27:22.728Z,20.10
2019-05-18T18:29:40.346Z,19.00
2019-05-18T18:32:11.034Z,19.30
2019-05-18T18:34:41.297Z,19.40
2019-05-18T18:37:11.166Z,19.10
2019-05-18T18:39:41.140Z,19.00
2019-05-18T18:42:10.830Z,19.60
2019-05-18T18:44:40.645Z,20.60
2019-05-18T18:47:10.518Z,20.70
2019-05-18T18:49:40.190Z,19.00
2019-05-18T18:52:09.910Z,18.70
2019-05-18T18:54:39.572Z,18.80
2019-05-18T18:57:09.266Z,17.60
2019-05-18T18:59:39.427Z,16.90
2019-05-18T19:02:09.267Z,17.00
2019-05-18T19:04:38.926Z,17.20
2019-05-18T19:07:09.311Z,18.10
2019-05-18T19:09:39.485Z,18.40
2019-05-18T19:12:09.185Z,18.50
2019-05-18T19:14:39.039Z,18.90
2019-05-18T19:17:08.772Z,19.40
2019-05-18T19:19:40.243Z,19.70
2019-05-18T19:22:10.121Z,18.80
2019-05-18T19:24:40.209Z,19.80
2019-05-18T19:27:09.926Z,20.20
2019-05-18T19:29:40.008Z,20.60
2019-05-18T19:32:10.124Z,20.80
2019-05-18T19:34:39.790Z,20.80
2019-05-18T19:37:09.946Z,20.80
2019-05-18T19:39:39.817Z,20.90
2019-05-18T19:42:09.927Z,21.00
2019-05-18T19:44:39.615Z,20.80
2019-05-18T19:47:09.339Z,19.90
2019-05-18T19:49:39.020Z,20.30
2019-05-18T19:52:09.126Z,20.70
2019-05-18T19:54:38.800Z,20.90
2019-05-18T19:57:08.545Z,21.10
2019-05-18T19:59:38.190Z,21.10
2019-05-18T20:02:08.402Z,21.00
2019-05-18T20:04:38.102Z,21.00
2019-05-18T20:07:08.655Z,20.90
2019-05-18T20:09:38.787Z,20.90
2019-05-18T20:12:08.461Z,20.80
2019-05-18T20:14:38.133Z,20.90
2019-05-18T20:17:07.866Z,20.90
2019-05-18T20:19:39.591Z,20.70
2019-05-18T20:22:08.870Z,20.70
2019-05-18T20:24:38.533Z,20.70
2019-05-18T20:27:08.276Z,20.70
2019-05-18T20:29:37.962Z,20.60
2019-05-18T20:32:07.683Z,20.70
2019-05-18T20:34:37.349Z,20.70
2019-05-18T20:37:07.141Z,20.20
2019-05-18T20:39:36.851Z,20.30
2019-05-18T20:42:06.558Z,20.40
2019-05-18T20:44:36.219Z,20.20
2019-05-18T20:47:05.935Z,19.20
2019-05-18T20:49:35.809Z,19.40
2019-05-18T20:52:06.005Z,19.00
2019-05-18T20:54:35.850Z,18.30
2019-05-18T20:57:05.547Z,17.50
2019-05-18T20:59:35.614Z,16.80
2019-05-18T21:02:05.713Z,16.60
2019-05-18T21:04:35.386Z,16.50
2019-05-18T21:07:05.091Z,17.10
2019-05-18T21:09:34.770Z,18.00
2019-05-18T21:12:04.818Z,18.70
2019-05-18T21:14:34.511Z,18.30
2019-05-18T21:17:04.606Z,17.60
2019-05-18T21:19:34.464Z,18.10
2019-05-18T21:22:04.729Z,19.00
2019-05-18T21:24:34.574Z,18.80
2019-05-18T21:27:04.308Z,19.00
2019-05-18T21:29:34.014Z,19.80
2019-05-18T21:32:04.219Z,20.20
2019-05-18T21:34:34.074Z,20.50
2019-05-18T21:37:03.817Z,20.60
2019-05-18T21:39:33.482Z,20.60
2019-05-18T21:42:03.179Z,20.60
2019-05-18T21:44:33.259Z,20.60
2019-05-18T21:47:03.002Z,20.60
2019-05-18T21:49:33.382Z,20.60
2019-05-18T21:52:03.385Z,20.60
2019-05-18T21:54:35.297Z,20.50
2019-05-18T21:57:05.150Z,20.50
2019-05-18T21:59:35.297Z,18.90
2019-05-18T22:02:05.551Z,18.10
2019-05-18T22:04:35.737Z,18.30
2019-05-18T22:07:05.747Z,17.30
2019-05-18T22:09:35.827Z,17.20
2019-05-18T22:12:05.882Z,17.20
2019-05-18T22:14:35.811Z,16.90
2019-05-18T22:17:05.715Z,16.70
2019-05-18T22:19:36.379Z,16.90
2019-05-18T22:22:06.362Z,17.30
2019-05-18T22:24:36.110Z,17.70
2019-05-18T22:27:05.999Z,17.10
2019-05-18T22:29:35.711Z,16.50
2019-05-18T22:32:05.697Z,17.00
2019-05-18T22:34:35.671Z,17.40
2019-05-18T22:37:05.646Z,17.40
2019-05-18T22:39:35.559Z,17.20
2019-05-18T22:42:05.690Z,16.90
2019-05-18T22:44:35.626Z,18.00
2019-05-18T22:47:05.503Z,18.50
2019-05-18T22:49:35.854Z,18.80
2019-05-18T22:52:05.855Z,19.00
2019-05-18T22:54:35.807Z,18.30
2019-05-18T22:57:06.099Z,17.40
2019-05-18T22:59:36.202Z,17.10
2019-05-18T23:02:06.017Z,16.60
2019-05-18T23:04:36.266Z,16.50
2019-05-18T23:07:06.345Z,17.40
2019-05-18T23:09:36.512Z,16.70
2019-05-18T23:12:06.196Z,16.40
2019-05-18T23:14:36.026Z,16.20
2019-05-18T23:17:06.835Z,16.60
2019-05-18T23:19:37.282Z,17.00
2019-05-18T23:22:06.942Z,16.70
2019-05-18T23:24:37.159Z,16.40
2019-05-18T23:27:06.882Z,17.70
2019-05-18T23:29:37.050Z,18.50
2019-05-18T23:32:07.055Z,19.10
2019-05-18T23:34:36.985Z,18.60
2019-05-18T23:37:07.075Z,19.10
2019-05-18T23:39:37.125Z,17.40
2019-05-18T23:42:08.205Z,17.60
2019-05-18T23:44:39.142Z,17.50
2019-05-18T23:47:09.691Z,17.60
2019-05-18T23:49:40.149Z,17.40
2019-05-18T23:52:10.518Z,16.30
2019-05-18T23:54:41.384Z,16.00
2019-05-18T23:57:12.086Z,16.10
2019-05-18T23:59:42.585Z,17.40
